createdAt,value
2022-08-17T00:00:08.333Z,11.35
2022-08-17T00:05:15.576Z,11.73
2022-08-17T00:10:22.753Z,11.73
2022-08-17T00:15:29.954Z,11.73
2022-08-17T00:20:37.220Z,11.73
2022-08-17T00:25:44.437Z,11.73
2022-08-17T00:30:53.510Z,12.09
2022-08-17T00:35:58.806Z,12.09
2022-08-17T00:41:06.076Z,12.09
2022-08-17T00:46:13.249Z,12.09
2022-08-17T00:51:20.464Z,12.09
2022-08-17T00:56:27.625Z,12.09
2022-08-17T01:01:34.941Z,12.09
2022-08-17T01:06:42.082Z,12.09
2022-08-17T01:11:49.365Z,12.09
2022-08-17T01:16:56.639Z,12.09
2022-08-17T01:22:03.862Z,12.09
2022-08-17T01:27:11.051Z,12.09
2022-08-17T01:32:18.320Z,12.45
2022-08-17T01:37:25.567Z,12.45
2022-08-17T01:42:32.720Z,12.45
2022-08-17T01:47:40.000Z,12.45
2022-08-17T01:52:47.365Z,12.45
2022-08-17T01:57:54.744Z,12.45
2022-08-17T02:03:01.966Z,12.45
2022-08-17T02:08:09.227Z,12.45
2022-08-17T02:13:17.239Z,12.09
2022-08-17T02:18:24.593Z,12.09
2022-08-17T02:23:31.943Z,12.09
2022-08-17T02:28:39.199Z,12.45
2022-08-17T02:33:46.404Z,12.45
2022-08-17T02:38:53.690Z,12.45
2022-08-17T02:44:01.048Z,12.45
2022-08-17T02:49:08.224Z,12.45
2022-08-17T02:54:40.471Z,12.45
2022-08-17T02:59:22.901Z,12.45
2022-08-17T03:04:30.402Z,12.45
2022-08-17T03:09:37.724Z,12.45
2022-08-17T03:14:45.017Z,12.45
2022-08-17T03:19:52.548Z,12.45
2022-08-17T03:24:59.812Z,11.55
2022-08-17T03:30:07.075Z,11.55
2022-08-17T03:35:14.260Z,11.55
2022-08-17T03:40:34.574Z,11.55
2022-08-17T03:45:28.634Z,11.55
2022-08-17T03:50:35.945Z,11.55
2022-08-17T03:55:43.109Z,11.55
2022-08-17T04:00:50.267Z,11.55
2022-08-17T04:05:57.466Z,11.90
2022-08-17T04:11:04.683Z,11.55
2022-08-17T04:16:11.839Z,11.90
2022-08-17T04:21:19.095Z,11.55
2022-08-17T04:26:52.037Z,11.55
2022-08-17T04:31:33.510Z,11.55
2022-08-17T04:36:40.697Z,11.55
2022-08-17T04:41:47.908Z,11.55
2022-08-17T04:46:55.082Z,11.90
2022-08-17T04:52:04.593Z,11.90
2022-08-17T04:57:09.462Z,11.90
2022-08-17T05:02:16.692Z,11.90
2022-08-17T05:07:27.218Z,11.90
2022-08-17T05:12:31.143Z,11.90
2022-08-17T05:17:38.373Z,11.90
2022-08-17T05:22:45.512Z,11.90
2022-08-17T05:27:52.732Z,11.90
2022-08-17T05:32:59.899Z,12.24
2022-08-17T05:38:07.082Z,12.24
2022-08-17T05:43:14.395Z,12.24
2022-08-17T05:48:21.605Z,12.24
2022-08-17T05:53:28.797Z,12.57
2022-08-17T05:58:36.052Z,12.57
2022-08-17T06:03:43.281Z,12.24
2022-08-17T06:08:51.437Z,12.24
2022-08-17T06:13:58.006Z,12.57
2022-08-17T06:19:05.297Z,12.24
2022-08-17T06:24:12.700Z,12.24
2022-08-17T06:29:20.230Z,12.57
2022-08-17T06:34:27.511Z,12.57
2022-08-17T06:39:34.832Z,12.90
2022-08-17T06:44:50.979Z,12.57
2022-08-17T06:49:55.082Z,12.90
2022-08-17T06:54:57.231Z,12.90
2022-08-17T07:00:04.505Z,12.57
2022-08-17T07:05:11.686Z,12.57
2022-08-17T07:10:18.912Z,12.57
2022-08-17T07:15:26.166Z,12.24
2022-08-17T07:20:33.334Z,12.24
2022-08-17T07:25:40.547Z,12.90
2022-08-17T07:30:47.824Z,13.22
2022-08-17T07:35:55.070Z,13.22
2022-08-17T07:41:02.680Z,13.22
2022-08-17T07:46:09.464Z,13.54
2022-08-17T07:51:16.660Z,13.22
2022-08-17T07:56:23.917Z,13.54
2022-08-17T08:01:41.575Z,13.54
2022-08-17T08:06:38.391Z,13.54
2022-08-17T08:11:45.596Z,13.54
2022-08-17T08:16:52.844Z,13.54
2022-08-17T08:22:00.072Z,13.54
2022-08-17T08:27:07.330Z,13.54
2022-08-17T08:32:14.540Z,13.54
2022-08-17T08:37:32.735Z,13.54
2022-08-17T08:42:29.186Z,13.54
2022-08-17T08:47:36.375Z,13.54
2022-08-17T08:52:43.625Z,14.46
2022-08-17T08:57:51.049Z,14.14
2022-08-17T09:02:58.057Z,14.14
2022-08-17T09:08:05.296Z,13.81
2022-08-17T09:13:12.506Z,14.14
2022-08-17T09:19:00.247Z,13.81
2022-08-17T09:23:26.973Z,13.81
2022-08-17T09:28:34.127Z,13.48
2022-08-17T09:33:41.358Z,13.48
2022-08-17T09:38:48.548Z,13.48
2022-08-17T09:43:55.797Z,13.14
2022-08-17T09:49:03.028Z,13.14
2022-08-17T09:54:37.660Z,13.14
2022-08-17T09:59:17.479Z,12.80
2022-08-17T10:04:29.303Z,12.80
2022-08-17T10:09:31.963Z,12.80
2022-08-17T10:14:44.164Z,12.80
2022-08-17T10:19:46.541Z,13.14
2022-08-17T10:25:21.174Z,12.80
2022-08-17T10:30:01.002Z,12.80
2022-08-17T10:35:08.148Z,12.80
2022-08-17T10:40:15.534Z,13.35
2022-08-17T10:45:22.549Z,13.35
2022-08-17T10:50:29.754Z,13.35
2022-08-17T10:55:36.958Z,13.35
2022-08-17T11:00:44.235Z,12.99
2022-08-17T11:05:51.392Z,12.99
2022-08-17T11:10:58.565Z,13.35
2022-08-17T11:16:08.437Z,12.99
2022-08-17T11:21:12.988Z,12.99
2022-08-17T11:26:20.147Z,12.62
2022-08-17T11:31:38.360Z,12.62
2022-08-17T11:36:34.686Z,12.62
2022-08-17T11:41:41.887Z,12.62
2022-08-17T11:46:51.721Z,12.62
2022-08-17T11:51:56.381Z,12.62
2022-08-17T11:57:03.654Z,12.62
2022-08-17T12:02:11.005Z,12.62
2022-08-17T12:07:18.159Z,12.62
2022-08-17T12:12:25.378Z,12.62
2022-08-17T12:17:39.767Z,12.25
2022-08-17T12:22:39.743Z,12.62
2022-08-17T12:28:04.883Z,12.62
2022-08-17T12:32:54.214Z,12.62
2022-08-17T12:38:01.411Z,12.62
2022-08-17T12:43:08.635Z,12.62
2022-08-17T12:48:16.004Z,12.62
2022-08-17T12:53:23.179Z,12.25
2022-08-17T12:58:30.368Z,12.25
2022-08-17T13:03:37.579Z,12.25
2022-08-17T13:08:44.804Z,12.25
2022-08-17T13:13:52.030Z,12.25
2022-08-17T13:18:59.300Z,12.25
2022-08-17T13:24:06.514Z,12.25
2022-08-17T13:29:13.784Z,12.75
2022-08-17T13:34:20.965Z,12.75
2022-08-17T13:39:28.227Z,12.75
2022-08-17T13:44:35.418Z,12.75
2022-08-17T13:49:48.456Z,12.75
2022-08-17T13:54:49.967Z,12.75
2022-08-17T13:59:57.160Z,12.75
2022-08-17T14:05:06.284Z,12.75
2022-08-17T14:10:11.711Z,12.75
2022-08-17T14:15:18.944Z,12.75
2022-08-17T14:20:26.226Z,12.75
2022-08-17T14:25:33.400Z,12.75
2022-08-17T14:30:40.621Z,13.14
2022-08-17T14:35:47.795Z,12.75
2022-08-17T14:40:55.179Z,13.14
2022-08-17T14:46:02.437Z,13.14
2022-08-17T14:51:09.732Z,13.14
2022-08-17T14:56:16.947Z,13.14
2022-08-17T15:01:24.255Z,13.14
2022-08-17T15:06:31.420Z,13.14
2022-08-17T15:11:38.633Z,13.14
2022-08-17T15:16:45.820Z,13.14
2022-08-17T15:21:53.777Z,13.14
2022-08-17T15:27:01.037Z,13.14
2022-08-17T15:32:08.218Z,13.14
2022-08-17T15:37:15.433Z,13.14
2022-08-17T15:42:22.572Z,13.14
2022-08-17T15:47:29.787Z,13.52
2022-08-17T15:52:36.972Z,13.52
2022-08-17T15:57:44.298Z,13.52
2022-08-17T16:03:45.261Z,13.52
2022-08-17T16:08:00.009Z,13.89
2022-08-17T16:13:17.145Z,13.89
2022-08-17T16:18:14.428Z,13.89
2022-08-17T16:23:21.734Z,14.25
2022-08-17T16:28:35.676Z,14.25
2022-08-17T16:33:36.256Z,14.61
2022-08-17T16:38:43.549Z,14.61
2022-08-17T16:43:50.939Z,14.61
2022-08-17T16:48:58.232Z,14.61
2022-08-17T16:54:05.451Z,14.61
2022-08-17T16:59:30.361Z,14.61
2022-08-17T17:04:20.629Z,14.96
2022-08-17T17:09:27.832Z,14.96
2022-08-17T17:14:35.072Z,14.96
2022-08-17T17:19:42.967Z,14.96
2022-08-17T17:24:50.264Z,14.96
2022-08-17T17:29:56.694Z,14.96
2022-08-17T17:35:03.919Z,14.96
2022-08-17T17:40:11.128Z,14.96
2022-08-17T17:45:18.367Z,14.96
2022-08-17T17:50:25.816Z,14.96
2022-08-17T17:55:33.043Z,14.96
2022-08-17T18:00:40.221Z,14.96
2022-08-17T18:05:47.464Z,15.30
2022-08-17T18:10:54.749Z,15.30
2022-08-17T18:16:01.941Z,15.30
2022-08-17T18:21:09.150Z,15.30
2022-08-17T18:26:16.327Z,15.64
2022-08-17T18:31:23.573Z,15.30
2022-08-17T18:36:30.782Z,15.30
2022-08-17T18:41:38.065Z,15.64
2022-08-17T18:46:45.294Z,15.30
2022-08-17T18:51:52.502Z,14.96
2022-08-17T18:56:59.731Z,15.30
2022-08-17T19:02:12.031Z,15.64
2022-08-17T19:07:14.120Z,15.64
2022-08-17T19:12:24.955Z,15.64
2022-08-17T19:17:28.554Z,15.96
2022-08-17T19:22:35.778Z,16.29
2022-08-17T19:27:46.389Z,16.29
2022-08-17T19:32:50.296Z,15.64
2022-08-17T19:37:57.887Z,15.30
2022-08-17T19:43:05.231Z,15.30
2022-08-17T19:48:12.559Z,15.30
2022-08-17T19:53:19.822Z,15.30
2022-08-17T19:58:27.101Z,15.30
2022-08-17T20:03:34.948Z,15.30
2022-08-17T20:08:42.183Z,15.30
2022-08-17T20:13:49.545Z,15.30
2022-08-17T20:18:56.834Z,14.96
2022-08-17T20:24:04.012Z,14.96
2022-08-17T20:29:11.212Z,14.61
2022-08-17T20:34:19.240Z,14.61
2022-08-17T20:39:26.524Z,14.61
2022-08-17T20:44:33.717Z,14.61
2022-08-17T20:49:40.969Z,14.25
2022-08-17T20:54:48.264Z,14.25
2022-08-17T20:59:55.552Z,14.25
2022-08-17T21:05:06.881Z,14.25
2022-08-17T21:10:10.034Z,14.25
2022-08-17T21:15:18.216Z,14.25
2022-08-17T21:20:25.511Z,14.25
2022-08-17T21:25:32.746Z,14.25
2022-08-17T21:30:39.945Z,13.89
2022-08-17T21:35:47.145Z,13.89
2022-08-17T21:40:55.043Z,13.89
2022-08-17T21:46:02.173Z,14.25
2022-08-17T21:51:09.484Z,14.25
2022-08-17T21:56:16.663Z,13.35
2022-08-17T22:01:23.985Z,13.70
2022-08-17T22:06:31.027Z,14.05
2022-08-17T22:11:38.201Z,14.05
2022-08-17T22:16:45.395Z,14.05
2022-08-17T22:21:52.605Z,14.05
2022-08-17T22:26:59.829Z,13.70
2022-08-17T22:32:07.075Z,13.70
2022-08-17T22:37:14.247Z,13.70
2022-08-17T22:42:21.808Z,13.70
2022-08-17T22:47:29.041Z,13.70
2022-08-17T22:52:36.323Z,14.05
2022-08-17T22:57:43.591Z,14.39
2022-08-17T23:02:55.068Z,14.39
2022-08-17T23:07:58.082Z,14.05
2022-08-17T23:13:05.336Z,13.70
2022-08-17T23:18:12.572Z,13.70
2022-08-17T23:23:23.549Z,13.70
2022-08-17T23:28:27.004Z,13.70
2022-08-17T23:33:34.180Z,13.70
2022-08-17T23:38:41.390Z,13.70
2022-08-17T23:43:54.878Z,13.70
2022-08-17T23:49:02.052Z,13.70
2022-08-17T23:54:09.238Z,13.70
2022-08-17T23:59:17.147Z,12.80
